createdAt,value
2019-05-05T00:00:44.527Z,2.68
2019-05-05T00:01:44.902Z,2.66
2019-05-05T00:02:42.247Z,2.68
2019-05-05T00:03:44.438Z,2.71
2019-05-05T00:04:42.287Z,2.68
2019-05-05T00:05:44.296Z,2.68
2019-05-05T00:06:42.125Z,2.69
2019-05-05T00:07:41.812Z,2.61
2019-05-05T00:08:41.726Z,2.69
2019-05-05T00:09:41.712Z,2.69
2019-05-05T00:10:41.558Z,2.69
2019-05-05T00:11:41.478Z,2.66
2019-05-05T00:12:41.525Z,2.62
2019-05-05T00:13:41.288Z,2.53
2019-05-05T00:14:41.328Z,2.53
2019-05-05T00:15:41.123Z,2.47
2019-05-05T00:16:41.166Z,2.47
2019-05-05T00:17:40.937Z,2.51
2019-05-05T00:18:40.865Z,2.56
2019-05-05T00:19:40.769Z,2.53
2019-05-05T00:20:40.751Z,2.55
2019-05-05T00:21:40.604Z,2.50
2019-05-05T00:22:40.560Z,2.50
2019-05-05T00:23:40.418Z,2.55
2019-05-05T00:24:40.369Z,2.44
2019-05-05T00:25:40.245Z,2.56
2019-05-05T00:26:40.208Z,2.55
2019-05-05T00:27:40.067Z,2.58
2019-05-05T00:28:39.980Z,2.43
2019-05-05T00:29:39.993Z,2.47
2019-05-05T00:30:39.811Z,2.47
2019-05-05T00:31:39.746Z,2.45
2019-05-05T00:32:39.810Z,2.41
2019-05-05T00:33:39.552Z,2.50
2019-05-05T00:34:39.456Z,2.38
2019-05-05T00:35:39.421Z,2.47
2019-05-05T00:36:39.303Z,2.38
2019-05-05T00:37:39.192Z,2.43
2019-05-05T00:38:39.235Z,2.36
2019-05-05T00:39:39.020Z,2.32
2019-05-05T00:40:38.938Z,2.29
2019-05-05T00:41:38.873Z,2.38
2019-05-05T00:42:38.768Z,2.37
2019-05-05T00:43:38.672Z,2.41
2019-05-05T00:44:38.659Z,2.38
2019-05-05T00:45:38.496Z,2.37
2019-05-05T00:46:38.425Z,2.40
2019-05-05T00:47:38.476Z,2.29
2019-05-05T00:48:38.240Z,2.30
2019-05-05T00:49:46.348Z,2.26
2019-05-05T00:50:38.088Z,2.26
2019-05-05T00:51:37.990Z,2.20
2019-05-05T00:52:38.098Z,2.25
2019-05-05T00:53:37.799Z,2.15
2019-05-05T00:54:37.714Z,2.11
2019-05-05T00:55:37.706Z,2.11
2019-05-05T00:56:37.553Z,2.11
2019-05-05T00:57:37.448Z,2.12
2019-05-05T00:58:37.523Z,2.07
2019-05-05T00:59:37.273Z,2.12
2019-05-05T01:00:37.332Z,2.04
2019-05-05T01:01:37.128Z,2.08
2019-05-05T01:02:37.139Z,2.02
2019-05-05T01:03:36.930Z,2.01
2019-05-05T01:04:36.949Z,2.14
2019-05-05T01:05:36.750Z,2.14
2019-05-05T01:06:36.757Z,2.09
2019-05-05T01:07:36.590Z,1.98
2019-05-05T01:08:36.569Z,2.08
2019-05-05T01:09:36.396Z,2.04
2019-05-05T01:10:36.373Z,2.05
2019-05-05T01:11:36.234Z,1.95
2019-05-05T01:12:36.218Z,2.01
2019-05-05T01:13:36.048Z,1.93
2019-05-05T01:14:35.990Z,2.01
2019-05-05T01:15:35.917Z,1.98
2019-05-05T01:16:36.003Z,1.89
2019-05-05T01:17:35.711Z,1.90
2019-05-05T01:18:35.618Z,1.86
2019-05-05T01:19:35.614Z,1.92
2019-05-05T01:20:35.433Z,1.89
2019-05-05T01:21:35.350Z,1.83
2019-05-05T01:22:35.461Z,1.90
2019-05-05T01:23:35.177Z,1.90
2019-05-05T01:24:35.083Z,1.86
2019-05-05T01:25:35.254Z,1.90
2019-05-05T01:26:35.490Z,1.90
2019-05-05T01:27:34.892Z,1.95
2019-05-05T01:28:35.500Z,2.01
2019-05-05T01:29:34.761Z,1.95
2019-05-05T01:30:35.087Z,1.95
2019-05-05T01:31:34.730Z,2.00
2019-05-05T01:32:35.140Z,2.00
2019-05-05T01:33:34.477Z,1.88
2019-05-05T01:34:34.860Z,1.89
2019-05-05T01:35:34.339Z,1.90
2019-05-05T01:36:34.535Z,1.88
2019-05-05T01:37:34.835Z,1.77
2019-05-05T01:38:34.296Z,1.83
2019-05-05T01:39:34.554Z,1.74
2019-05-05T01:40:35.330Z,1.72
2019-05-05T01:41:34.814Z,1.81
2019-05-05T01:42:35.253Z,1.72
2019-05-05T01:43:34.635Z,1.72
2019-05-05T01:44:35.110Z,1.72
2019-05-05T01:45:34.740Z,1.77
2019-05-05T01:46:35.155Z,1.64
2019-05-05T01:47:34.725Z,1.61
2019-05-05T01:48:34.964Z,1.65
2019-05-05T01:49:34.494Z,1.63
2019-05-05T01:50:34.770Z,1.64
2019-05-05T01:51:32.717Z,1.61
2019-05-05T01:52:34.431Z,1.64
2019-05-05T01:53:32.555Z,1.61
2019-05-05T01:54:32.463Z,1.60
2019-05-05T01:55:34.545Z,1.61
2019-05-05T01:56:32.281Z,1.65
2019-05-05T01:57:34.342Z,1.63
2019-05-05T01:58:32.187Z,1.61
2019-05-05T01:59:32.021Z,1.52
2019-05-05T02:00:31.938Z,1.57
2019-05-05T02:01:32.000Z,1.47
2019-05-05T02:02:31.770Z,1.47
2019-05-05T02:03:31.671Z,1.57
2019-05-05T02:04:31.611Z,1.49
2019-05-05T02:05:31.492Z,1.49
2019-05-05T02:06:31.409Z,1.52
2019-05-05T02:07:31.459Z,1.52
2019-05-05T02:08:31.230Z,1.60
2019-05-05T02:09:31.151Z,1.72
2019-05-05T02:10:31.243Z,1.71
2019-05-05T02:11:30.975Z,1.72
2019-05-05T02:12:30.892Z,1.72
2019-05-05T02:13:30.859Z,1.72
2019-05-05T02:14:30.711Z,1.70
2019-05-05T02:15:30.663Z,1.75
2019-05-05T02:16:30.530Z,1.65
2019-05-05T02:17:30.912Z,1.61
2019-05-05T02:18:30.363Z,1.63
2019-05-05T02:19:30.271Z,1.60
2019-05-05T02:20:31.320Z,1.60
2019-05-05T02:21:30.090Z,1.60
2019-05-05T02:22:30.034Z,1.64
2019-05-05T02:23:30.135Z,1.63
2019-05-05T02:24:29.825Z,1.54
2019-05-05T02:25:29.908Z,1.56
2019-05-05T02:26:29.655Z,1.52
2019-05-05T02:27:29.731Z,1.54
2019-05-05T02:28:29.487Z,1.57
2019-05-05T02:29:29.384Z,1.50
2019-05-05T02:30:29.325Z,1.54
2019-05-05T02:31:29.218Z,1.53
2019-05-05T02:32:29.130Z,1.53
2019-05-05T02:33:29.177Z,1.50
2019-05-05T02:34:28.950Z,1.56
2019-05-05T02:35:28.871Z,1.57
2019-05-05T02:36:29.171Z,1.64
2019-05-05T02:37:28.689Z,1.64
2019-05-05T02:38:28.617Z,1.70
2019-05-05T02:39:28.565Z,1.72
2019-05-05T02:40:29.821Z,1.72
2019-05-05T02:41:28.337Z,1.79
2019-05-05T02:42:28.419Z,1.82
2019-05-05T02:43:28.206Z,1.83
2019-05-05T02:44:28.077Z,1.92
2019-05-05T02:45:28.199Z,1.93
2019-05-05T02:46:27.901Z,1.88
2019-05-05T02:47:27.818Z,1.90
2019-05-05T02:48:27.845Z,1.90
2019-05-05T02:49:27.636Z,1.93
2019-05-05T02:50:27.554Z,1.98
2019-05-05T02:51:27.628Z,2.02
2019-05-05T02:52:27.377Z,2.04
2019-05-05T02:53:27.295Z,2.04
2019-05-05T02:54:27.235Z,2.09
2019-05-05T02:55:27.106Z,2.05
2019-05-05T02:56:27.027Z,2.02
2019-05-05T02:57:27.051Z,2.05
2019-05-05T02:58:26.867Z,2.07
2019-05-05T02:59:26.761Z,2.00
2019-05-05T03:00:26.866Z,2.07
2019-05-05T03:01:26.584Z,2.05
2019-05-05T03:02:26.676Z,2.09
2019-05-05T03:03:26.425Z,2.01
2019-05-05T03:04:26.480Z,2.09
2019-05-05T03:05:26.234Z,2.02
2019-05-05T03:06:26.288Z,2.02
2019-05-05T03:07:26.062Z,2.08
2019-05-05T03:08:26.126Z,2.00
2019-05-05T03:09:25.890Z,2.00
2019-05-05T03:10:25.798Z,2.01
2019-05-05T03:11:25.913Z,2.05
2019-05-05T03:12:25.625Z,2.02
2019-05-05T03:13:25.551Z,2.04
2019-05-05T03:14:25.523Z,2.12
2019-05-05T03:15:25.368Z,2.05
2019-05-05T03:16:25.331Z,2.05
2019-05-05T03:17:25.186Z,2.02
2019-05-05T03:18:25.202Z,2.11
2019-05-05T03:19:25.007Z,2.11
2019-05-05T03:20:31.943Z,2.12
2019-05-05T03:21:24.837Z,2.07
2019-05-05T03:22:24.787Z,2.12
2019-05-05T03:23:24.690Z,2.20
2019-05-05T03:24:24.595Z,2.15
2019-05-05T03:25:24.489Z,2.18
2019-05-05T03:26:25.429Z,2.15
2019-05-05T03:27:24.321Z,2.26
2019-05-05T03:28:24.351Z,2.27
2019-05-05T03:29:24.478Z,2.29
2019-05-05T03:30:26.033Z,2.27
2019-05-05T03:31:26.308Z,2.30
2019-05-05T03:32:25.487Z,2.26
2019-05-05T03:33:25.050Z,2.26
2019-05-05T03:34:24.084Z,2.33
2019-05-05T03:35:24.127Z,2.37
2019-05-05T03:36:24.498Z,2.38
2019-05-05T03:37:25.027Z,2.30
2019-05-05T03:38:24.824Z,2.37
2019-05-05T03:39:23.613Z,2.36
2019-05-05T03:40:23.905Z,2.43
2019-05-05T03:41:23.879Z,2.33
2019-05-05T03:42:24.496Z,2.40
2019-05-05T03:43:23.681Z,2.29
2019-05-05T03:44:24.156Z,2.30
2019-05-05T03:45:23.470Z,2.43
2019-05-05T03:46:23.808Z,2.36
2019-05-05T03:47:24.096Z,2.32
2019-05-05T03:48:24.100Z,2.41
2019-05-05T03:49:24.273Z,2.38
2019-05-05T03:50:23.766Z,2.36
2019-05-05T03:51:24.212Z,2.32
2019-05-05T03:52:24.320Z,2.36
2019-05-05T03:53:22.050Z,2.44
2019-05-05T03:54:23.880Z,2.44
2019-05-05T03:55:24.043Z,2.44
2019-05-05T03:56:21.791Z,2.50
2019-05-05T03:57:21.761Z,2.50
2019-05-05T03:58:21.613Z,2.56
2019-05-05T03:59:21.544Z,2.66
2019-05-05T04:00:23.493Z,2.68
2019-05-05T04:01:21.357Z,2.62
2019-05-05T04:02:23.340Z,2.68
2019-05-05T04:03:21.282Z,2.77
2019-05-05T04:04:21.106Z,2.73
2019-05-05T04:05:21.014Z,2.77
2019-05-05T04:06:23.532Z,2.84
2019-05-05T04:07:20.834Z,2.94
2019-05-05T04:08:20.745Z,2.84
2019-05-05T04:09:20.746Z,3.02
2019-05-05T04:10:20.570Z,2.99
2019-05-05T04:11:20.491Z,3.05
2019-05-05T04:12:20.424Z,3.02
2019-05-05T04:13:20.313Z,3.12
2019-05-05T04:14:20.247Z,3.16
2019-05-05T04:15:20.241Z,3.15
2019-05-05T04:16:20.055Z,3.23
2019-05-05T04:17:19.963Z,3.26
2019-05-05T04:18:19.951Z,3.35
2019-05-05T04:19:19.806Z,3.35
2019-05-05T04:20:19.708Z,3.45
2019-05-05T04:21:30.353Z,3.45
2019-05-05T04:22:19.538Z,3.59
2019-05-05T04:23:19.449Z,3.63
2019-05-05T04:24:19.421Z,3.68
2019-05-05T04:25:19.284Z,3.72
2019-05-05T04:26:19.189Z,3.74
2019-05-05T04:27:19.195Z,3.77
2019-05-05T04:28:19.014Z,3.88
2019-05-05T04:29:18.943Z,3.86
2019-05-05T04:30:18.911Z,4.00
2019-05-05T04:31:18.759Z,3.98
2019-05-05T04:32:18.715Z,4.00
2019-05-05T04:33:18.588Z,4.00
2019-05-05T04:34:19.589Z,4.14
2019-05-05T04:35:18.415Z,4.08
2019-05-05T04:36:18.334Z,4.13
2019-05-05T04:37:18.341Z,4.11
2019-05-05T04:38:18.152Z,4.16
2019-05-05T04:39:18.082Z,4.21
2019-05-05T04:40:20.003Z,4.16
2019-05-05T04:41:17.942Z,4.18
2019-05-05T04:42:17.865Z,4.29
2019-05-05T04:43:17.745Z,4.26
2019-05-05T04:44:18.051Z,4.25
2019-05-05T04:45:17.553Z,4.26
2019-05-05T04:46:17.474Z,4.29
2019-05-05T04:47:18.411Z,4.36
2019-05-05T04:48:17.292Z,4.39
2019-05-05T04:49:17.223Z,4.36
2019-05-05T04:50:18.363Z,4.36
2019-05-05T04:51:17.040Z,4.31
2019-05-05T04:52:23.979Z,4.39
2019-05-05T04:53:16.866Z,4.32
2019-05-05T04:54:16.856Z,4.35
2019-05-05T04:55:16.695Z,4.42
2019-05-05T04:56:16.635Z,4.38
2019-05-05T04:57:16.527Z,4.39
2019-05-05T04:58:17.461Z,4.44
2019-05-05T04:59:16.368Z,4.43
2019-05-05T05:00:16.264Z,4.34
2019-05-05T05:01:16.263Z,4.39
2019-05-05T05:02:16.100Z,4.42
2019-05-05T05:03:16.008Z,4.44
2019-05-05T05:04:16.004Z,4.53
2019-05-05T05:05:15.837Z,4.44
2019-05-05T05:06:15.749Z,4.56
2019-05-05T05:07:15.687Z,4.47
2019-05-05T05:08:15.576Z,4.59
2019-05-05T05:09:15.493Z,4.62
2019-05-05T05:10:16.455Z,4.64
2019-05-05T05:11:15.325Z,4.64
2019-05-05T05:12:15.238Z,4.62
2019-05-05T05:13:15.211Z,4.62
2019-05-05T05:14:15.076Z,4.71
2019-05-05T05:15:15.010Z,4.68
2019-05-05T05:16:14.926Z,4.67
2019-05-05T05:17:14.815Z,4.68
2019-05-05T05:18:14.946Z,4.71
2019-05-05T05:19:14.746Z,4.74
2019-05-05T05:20:14.570Z,4.74
2019-05-05T05:21:14.886Z,4.72
2019-05-05T05:22:14.454Z,4.69
2019-05-05T05:23:14.384Z,4.74
2019-05-05T05:24:14.729Z,4.84
2019-05-05T05:25:14.147Z,4.79
2019-05-05T05:26:14.100Z,4.84
2019-05-05T05:27:13.967Z,4.90
2019-05-05T05:28:14.487Z,4.93
2019-05-05T05:29:15.128Z,4.83
2019-05-05T05:30:13.965Z,4.80
2019-05-05T05:31:14.151Z,4.99
2019-05-05T05:32:15.482Z,4.99
2019-05-05T05:33:14.922Z,4.96
2019-05-05T05:34:14.837Z,4.99
2019-05-05T05:35:14.160Z,5.05
2019-05-05T05:36:14.410Z,5.05
2019-05-05T05:37:13.541Z,5.19
2019-05-05T05:38:14.015Z,5.17
2019-05-05T05:39:14.001Z,5.23
2019-05-05T05:40:14.436Z,5.26
2019-05-05T05:41:13.637Z,5.32
2019-05-05T05:42:13.736Z,5.29
2019-05-05T05:43:13.898Z,5.37
2019-05-05T05:44:14.607Z,5.47
2019-05-05T05:45:14.457Z,5.56
2019-05-05T05:46:13.601Z,5.59
2019-05-05T05:47:14.086Z,5.62
2019-05-05T05:48:14.239Z,5.66
2019-05-05T05:49:13.544Z,5.78
2019-05-05T05:50:14.366Z,5.78
2019-05-05T05:51:11.912Z,5.85
2019-05-05T05:52:18.539Z,5.93
2019-05-05T05:53:13.834Z,5.92
2019-05-05T05:54:11.723Z,5.93
2019-05-05T05:55:11.597Z,6.03
2019-05-05T05:56:13.405Z,6.02
2019-05-05T05:57:13.466Z,6.13
2019-05-05T05:58:11.322Z,6.21
2019-05-05T05:59:11.240Z,6.30
2019-05-05T06:00:11.270Z,6.38
2019-05-05T06:01:11.070Z,6.54
2019-05-05T06:02:14.789Z,6.63
2019-05-05T06:03:10.952Z,6.54
2019-05-05T06:04:10.820Z,6.43
2019-05-05T06:05:10.745Z,6.50
2019-05-05T06:06:10.770Z,6.55
2019-05-05T06:07:10.573Z,6.45
2019-05-05T06:08:10.485Z,6.45
2019-05-05T06:09:10.481Z,6.43
2019-05-05T06:10:21.429Z,6.39
2019-05-05T06:11:10.235Z,6.42
2019-05-05T06:12:10.196Z,6.28
2019-05-05T06:13:10.064Z,6.25
2019-05-05T06:14:09.981Z,6.27
2019-05-05T06:15:09.924Z,6.19
2019-05-05T06:16:09.826Z,6.16
2019-05-05T06:17:09.824Z,6.11
2019-05-05T06:18:09.651Z,6.10
2019-05-05T06:19:10.375Z,6.05
2019-05-05T06:20:09.479Z,6.02
2019-05-05T06:21:09.410Z,6.14
2019-05-05T06:22:09.348Z,6.14
2019-05-05T06:23:09.226Z,6.17
2019-05-05T06:24:09.145Z,6.20
2019-05-05T06:25:09.164Z,6.17
2019-05-05T06:26:08.994Z,6.24
2019-05-05T06:27:16.471Z,6.32
2019-05-05T06:28:08.808Z,6.27
2019-05-05T06:29:08.808Z,6.33
2019-05-05T06:30:08.640Z,6.32
2019-05-05T06:31:08.566Z,6.38
2019-05-05T06:32:08.521Z,6.38
2019-05-05T06:33:08.389Z,6.55
2019-05-05T06:34:08.306Z,6.54
2019-05-05T06:35:08.336Z,6.58
2019-05-05T06:36:08.155Z,6.54
2019-05-05T06:37:08.053Z,6.55
2019-05-05T06:38:08.062Z,6.58
2019-05-05T06:39:07.883Z,6.69
2019-05-05T06:40:07.811Z,6.54
2019-05-05T06:41:07.791Z,6.75
2019-05-05T06:42:07.637Z,6.68
2019-05-05T06:43:07.577Z,6.86
2019-05-05T06:44:07.470Z,6.82
2019-05-05T06:45:07.481Z,6.79
2019-05-05T06:46:07.311Z,6.81
2019-05-05T06:47:07.215Z,6.90
2019-05-05T06:48:07.127Z,6.97
2019-05-05T06:49:07.100Z,7.09
2019-05-05T06:50:06.962Z,7.08
2019-05-05T06:51:06.894Z,7.18
2019-05-05T06:52:06.794Z,7.26
2019-05-05T06:53:06.820Z,7.26
2019-05-05T06:54:06.626Z,7.32
2019-05-05T06:55:06.628Z,7.33
2019-05-05T06:56:06.471Z,7.58
2019-05-05T06:57:06.376Z,7.69
2019-05-05T06:58:06.340Z,7.91
2019-05-05T06:59:06.210Z,7.96
2019-05-05T07:00:06.125Z,7.95
2019-05-05T07:01:06.086Z,8.04
2019-05-05T07:02:05.961Z,8.25
2019-05-05T07:03:07.873Z,8.25
2019-05-05T07:04:05.871Z,8.21
2019-05-05T07:05:05.712Z,8.27
2019-05-05T07:06:05.662Z,8.17
2019-05-05T07:07:05.584Z,8.20
2019-05-05T07:08:05.468Z,8.14
2019-05-05T07:09:05.613Z,8.21
2019-05-05T07:10:05.301Z,8.13
2019-05-05T07:11:05.280Z,8.39
2019-05-05T07:12:05.212Z,8.40
2019-05-05T07:13:05.095Z,8.42
2019-05-05T07:14:04.974Z,8.46
2019-05-05T07:15:04.932Z,8.37
2019-05-05T07:16:05.059Z,8.21
2019-05-05T07:17:05.234Z,8.24
2019-05-05T07:18:04.741Z,8.20
2019-05-05T07:19:04.562Z,8.12
2019-05-05T07:20:04.534Z,8.17
2019-05-05T07:21:04.423Z,8.17
2019-05-05T07:22:04.336Z,8.09
2019-05-05T07:23:05.417Z,8.13
2019-05-05T07:24:04.167Z,8.09
2019-05-05T07:25:04.739Z,8.21
2019-05-05T07:26:04.355Z,8.37
2019-05-05T07:27:04.742Z,8.50
2019-05-05T07:28:04.371Z,8.96
2019-05-05T07:29:04.566Z,9.22
2019-05-05T07:30:04.731Z,9.37
2019-05-05T07:31:04.404Z,9.56
2019-05-05T07:32:04.084Z,9.77
2019-05-05T07:33:04.682Z,9.73
2019-05-05T07:34:04.718Z,9.63
2019-05-05T07:35:04.093Z,9.60
2019-05-05T07:36:05.895Z,9.58
2019-05-05T07:37:03.859Z,9.81
2019-05-05T07:38:04.483Z,9.86
2019-05-05T07:39:03.823Z,10.18
2019-05-05T07:40:04.210Z,10.55
2019-05-05T07:41:03.684Z,10.95
2019-05-05T07:42:04.531Z,11.01
2019-05-05T07:43:04.530Z,11.23
2019-05-05T07:44:04.827Z,11.24
2019-05-05T07:45:05.401Z,11.13
2019-05-05T07:46:03.926Z,11.30
2019-05-05T07:47:03.629Z,11.35
2019-05-05T07:48:04.634Z,11.11
2019-05-05T07:49:04.034Z,11.24
2019-05-05T07:50:04.015Z,11.31
2019-05-05T07:51:05.173Z,11.33
2019-05-05T07:52:03.952Z,11.48
2019-05-05T07:53:12.268Z,11.24
2019-05-05T07:54:03.646Z,11.20
2019-05-05T07:55:03.625Z,11.44
2019-05-05T07:56:03.574Z,11.41
2019-05-05T07:57:01.510Z,10.69
2019-05-05T07:58:01.464Z,10.90
2019-05-05T07:59:03.230Z,11.20
2019-05-05T08:00:01.257Z,11.08
2019-05-05T08:01:01.251Z,11.24
2019-05-05T08:02:01.111Z,11.54
2019-05-05T08:03:08.027Z,11.87
2019-05-05T08:04:00.944Z,11.90
2019-05-05T08:05:00.974Z,11.84
2019-05-05T08:06:00.785Z,11.53
2019-05-05T08:07:00.811Z,11.30
2019-05-05T08:08:00.625Z,11.19
2019-05-05T08:09:00.590Z,11.08
2019-05-05T08:10:00.465Z,11.11
2019-05-05T08:11:00.506Z,11.30
2019-05-05T08:12:00.321Z,11.78
2019-05-05T08:13:00.310Z,12.04
2019-05-05T08:14:00.153Z,12.55
2019-05-05T08:15:00.118Z,12.81
2019-05-05T08:16:00.302Z,12.56
2019-05-05T08:16:59.958Z,12.22
2019-05-05T08:17:59.835Z,12.13
2019-05-05T08:18:59.840Z,12.23
2019-05-05T08:19:59.683Z,12.66
2019-05-05T08:20:59.648Z,12.99
2019-05-05T08:21:59.559Z,13.44
2019-05-05T08:22:59.449Z,13.99
2019-05-05T08:23:59.481Z,14.31
2019-05-05T08:24:59.288Z,14.12
2019-05-05T08:25:59.211Z,13.51
2019-05-05T08:26:59.344Z,13.57
2019-05-05T08:27:59.054Z,13.63
2019-05-05T08:28:58.981Z,13.03
2019-05-05T08:30:02.076Z,12.88
2019-05-05T08:30:58.827Z,12.66
2019-05-05T08:31:58.769Z,12.63
2019-05-05T08:32:58.715Z,12.61
2019-05-05T08:33:58.593Z,12.49
2019-05-05T08:35:00.955Z,12.43
2019-05-05T08:35:58.522Z,12.26
2019-05-05T08:36:59.909Z,12.11
2019-05-05T08:37:58.280Z,11.82
2019-05-05T08:38:58.236Z,11.44
2019-05-05T08:39:58.122Z,11.42
2019-05-05T08:40:58.048Z,11.23
2019-05-05T08:41:58.188Z,11.23
2019-05-05T08:42:57.888Z,11.17
2019-05-05T08:43:57.805Z,11.27
2019-05-05T08:44:57.731Z,11.23
2019-05-05T08:45:57.649Z,11.30
2019-05-05T08:46:57.569Z,11.36
2019-05-05T08:47:57.557Z,11.45
2019-05-05T08:48:57.404Z,11.39
2019-05-05T08:49:57.327Z,11.64
2019-05-05T08:50:57.341Z,12.13
2019-05-05T08:51:57.165Z,12.30
2019-05-05T08:52:57.104Z,12.71
2019-05-05T08:53:58.032Z,12.59
2019-05-05T08:54:56.930Z,12.55
2019-05-05T08:55:56.850Z,12.49
2019-05-05T08:56:56.940Z,12.15
2019-05-05T08:57:56.704Z,12.16
2019-05-05T08:58:56.607Z,12.25
2019-05-05T09:00:04.958Z,12.70
2019-05-05T09:00:56.447Z,13.22
2019-05-05T09:01:56.373Z,13.46
2019-05-05T09:02:56.307Z,13.21
2019-05-05T09:03:56.258Z,12.79
2019-05-05T09:04:56.131Z,12.61
2019-05-05T09:05:56.052Z,12.94
2019-05-05T09:06:56.014Z,12.58
2019-05-05T09:07:55.911Z,13.29
2019-05-05T09:08:55.815Z,13.62
2019-05-05T09:09:55.826Z,13.32
2019-05-05T09:10:55.662Z,13.46
2019-05-05T09:11:55.583Z,13.94
2019-05-05T09:12:55.676Z,13.94
2019-05-05T09:13:55.421Z,14.24
2019-05-05T09:14:55.342Z,14.67
2019-05-05T09:15:55.464Z,15.07
2019-05-05T09:16:55.191Z,15.59
2019-05-05T09:17:55.126Z,15.81
2019-05-05T09:18:55.065Z,16.06
2019-05-05T09:19:54.956Z,16.10
2019-05-05T09:20:55.084Z,15.81
2019-05-05T09:21:54.807Z,15.46
2019-05-05T09:22:57.289Z,15.35
2019-05-05T09:23:59.969Z,14.97
2019-05-05T09:24:54.697Z,15.22
2019-05-05T09:25:54.502Z,14.95
2019-05-05T09:26:54.509Z,14.82
2019-05-05T09:27:54.365Z,14.97
2019-05-05T09:28:54.324Z,15.20
2019-05-05T09:29:54.403Z,14.97
2019-05-05T09:30:54.142Z,14.56
2019-05-05T09:31:54.144Z,14.27
2019-05-05T09:32:54.217Z,14.09
2019-05-05T09:33:53.894Z,13.50
2019-05-05T09:34:54.135Z,13.03
2019-05-05T09:35:54.235Z,12.70
2019-05-05T09:36:54.401Z,12.36
2019-05-05T09:37:53.686Z,12.05
2019-05-05T09:38:54.017Z,11.78
2019-05-05T09:39:54.158Z,11.46
2019-05-05T09:40:54.453Z,10.88
2019-05-05T09:41:53.695Z,9.99
2019-05-05T09:42:53.612Z,9.35
2019-05-05T09:43:53.914Z,9.03
2019-05-05T09:44:54.155Z,8.80
2019-05-05T09:45:54.485Z,8.80
2019-05-05T09:46:53.789Z,8.55
2019-05-05T09:47:53.866Z,8.54
2019-05-05T09:48:54.123Z,8.60
2019-05-05T09:49:54.806Z,8.54
2019-05-05T09:50:54.094Z,8.76
2019-05-05T09:51:54.324Z,8.86
2019-05-05T09:52:53.629Z,9.13
2019-05-05T09:53:54.166Z,9.16
2019-05-05T09:54:54.267Z,9.24
2019-05-05T09:55:52.147Z,9.34
2019-05-05T09:56:53.808Z,9.58
2019-05-05T09:57:53.961Z,9.56
2019-05-05T09:58:51.905Z,9.75
2019-05-05T09:59:51.817Z,9.85
2019-05-05T10:00:51.745Z,9.98
2019-05-05T10:01:53.663Z,10.26
2019-05-05T10:02:51.572Z,10.34
2019-05-05T10:03:51.515Z,10.28
2019-05-05T10:04:51.407Z,10.46
2019-05-05T10:05:51.330Z,10.38
2019-05-05T10:06:51.250Z,10.57
2019-05-05T10:07:51.166Z,10.78
2019-05-05T10:08:51.100Z,10.62
2019-05-05T10:09:51.001Z,10.83
2019-05-05T10:10:50.927Z,10.83
2019-05-05T10:11:50.838Z,11.39
2019-05-05T10:12:52.368Z,11.84
2019-05-05T10:13:50.706Z,12.25
2019-05-05T10:14:50.608Z,12.11
2019-05-05T10:15:50.518Z,12.34
2019-05-05T10:16:50.444Z,11.98
2019-05-05T10:17:50.354Z,12.08
2019-05-05T10:18:50.300Z,12.05
2019-05-05T10:19:50.198Z,12.16
2019-05-05T10:20:50.122Z,12.30
2019-05-05T10:21:50.043Z,12.51
2019-05-05T10:22:49.953Z,12.48
2019-05-05T10:23:49.901Z,12.61
2019-05-05T10:24:49.796Z,12.69
2019-05-05T10:25:49.718Z,12.81
2019-05-05T10:26:49.642Z,13.27
2019-05-05T10:27:49.558Z,13.59
2019-05-05T10:28:49.503Z,13.62
2019-05-05T10:29:49.407Z,13.84
2019-05-05T10:30:49.329Z,14.01
2019-05-05T10:31:49.251Z,13.88
2019-05-05T10:32:49.167Z,13.88
2019-05-05T10:33:49.110Z,14.16
2019-05-05T10:34:49.012Z,14.53
2019-05-05T10:35:48.934Z,14.61
2019-05-05T10:36:48.877Z,14.69
2019-05-05T10:37:48.783Z,14.60
2019-05-05T10:38:48.729Z,14.59
2019-05-05T10:39:48.635Z,14.82
2019-05-05T10:40:48.568Z,14.79
2019-05-05T10:41:48.482Z,13.90
2019-05-05T10:42:48.411Z,14.38
2019-05-05T10:43:48.345Z,14.97
2019-05-05T10:44:48.262Z,15.20
2019-05-05T10:45:48.186Z,14.48
2019-05-05T10:46:48.118Z,14.67
2019-05-05T10:47:48.036Z,14.49
2019-05-05T10:48:47.976Z,14.30
2019-05-05T10:49:47.891Z,14.09
2019-05-05T10:50:47.817Z,13.96
2019-05-05T10:51:47.742Z,13.63
2019-05-05T10:52:47.667Z,13.21
2019-05-05T10:53:47.600Z,13.55
2019-05-05T10:54:47.506Z,13.62
2019-05-05T10:55:47.436Z,13.80
2019-05-05T10:56:47.365Z,13.62
2019-05-05T10:57:47.280Z,13.73
2019-05-05T10:58:47.226Z,13.57
2019-05-05T10:59:47.127Z,13.80
2019-05-05T11:00:47.051Z,14.09
2019-05-05T11:01:46.971Z,13.62
2019-05-05T11:02:46.891Z,13.31
2019-05-05T11:03:46.839Z,13.32
2019-05-05T11:04:46.746Z,13.47
2019-05-05T11:05:46.660Z,13.80
2019-05-05T11:06:46.588Z,14.02
2019-05-05T11:07:46.498Z,14.23
2019-05-05T11:08:46.439Z,14.31
2019-05-05T11:09:46.350Z,14.11
2019-05-05T11:10:46.272Z,14.13
2019-05-05T11:11:46.190Z,14.24
2019-05-05T11:12:46.116Z,14.30
2019-05-05T11:13:46.045Z,14.01
2019-05-05T11:14:45.961Z,13.93
2019-05-05T11:15:45.884Z,13.79
2019-05-05T11:16:45.795Z,13.62
2019-05-05T11:17:45.716Z,13.61
2019-05-05T11:18:45.674Z,13.53
2019-05-05T11:19:45.557Z,13.62
2019-05-05T11:20:45.491Z,13.62
2019-05-05T11:21:45.397Z,13.48
2019-05-05T11:22:45.327Z,13.22
2019-05-05T11:23:45.247Z,13.31
2019-05-05T11:24:57.216Z,13.46
2019-05-05T11:25:45.086Z,13.29
2019-05-05T11:26:45.018Z,13.22
2019-05-05T11:27:44.922Z,12.91
2019-05-05T11:28:44.854Z,12.98
2019-05-05T11:29:44.785Z,12.87
2019-05-05T11:30:44.688Z,12.88
2019-05-05T11:31:44.610Z,12.92
2019-05-05T11:32:44.534Z,12.91
2019-05-05T11:33:44.450Z,12.38
2019-05-05T11:34:44.385Z,11.85
2019-05-05T11:35:44.461Z,11.96
2019-05-05T11:36:44.202Z,12.12
2019-05-05T11:37:44.127Z,12.15
2019-05-05T11:38:44.544Z,12.26
2019-05-05T11:39:44.579Z,12.05
2019-05-05T11:40:44.072Z,12.00
2019-05-05T11:41:44.130Z,12.11
2019-05-05T11:42:43.726Z,12.40
2019-05-05T11:43:43.651Z,12.89
2019-05-05T11:44:43.581Z,13.19
2019-05-05T11:45:43.903Z,13.19
2019-05-05T11:46:44.253Z,13.27
2019-05-05T11:47:44.380Z,13.27
2019-05-05T11:48:43.883Z,13.83
2019-05-05T11:49:44.174Z,14.31
2019-05-05T11:50:43.597Z,14.13
2019-05-05T11:51:43.683Z,14.44
2019-05-05T11:52:44.387Z,14.23
2019-05-05T11:53:44.706Z,14.64
2019-05-05T11:54:43.883Z,14.72
2019-05-05T11:55:44.292Z,14.82
2019-05-05T11:56:44.547Z,15.22
2019-05-05T11:57:43.756Z,15.58
2019-05-05T11:58:44.226Z,15.62
2019-05-05T11:59:42.425Z,15.27
2019-05-05T12:00:43.842Z,14.48
2019-05-05T12:01:44.039Z,14.11
2019-05-05T12:02:43.940Z,13.57
2019-05-05T12:03:44.141Z,13.31
2019-05-05T12:04:42.052Z,13.27
2019-05-05T12:05:44.089Z,13.19
2019-05-05T12:06:44.115Z,12.95
2019-05-05T12:07:43.463Z,12.81
2019-05-05T12:08:45.490Z,12.71
2019-05-05T12:09:41.670Z,12.80
2019-05-05T12:10:43.825Z,12.74
2019-05-05T12:11:41.494Z,12.63
2019-05-05T12:12:41.425Z,12.59
2019-05-05T12:13:41.341Z,12.33
2019-05-05T12:14:41.274Z,12.13
2019-05-05T12:15:41.187Z,11.87
2019-05-05T12:16:41.104Z,11.64
2019-05-05T12:17:41.022Z,11.41
2019-05-05T12:18:40.941Z,11.27
2019-05-05T12:19:40.865Z,11.12
2019-05-05T12:20:40.793Z,11.01
2019-05-05T12:21:40.700Z,10.72
2019-05-05T12:22:40.616Z,10.43
2019-05-05T12:23:40.546Z,10.35
2019-05-05T12:24:40.471Z,10.20
2019-05-05T12:25:40.375Z,10.20
2019-05-05T12:26:40.297Z,9.98
2019-05-05T12:27:40.210Z,9.99
2019-05-05T12:28:40.132Z,9.91
2019-05-05T12:29:40.076Z,10.11
2019-05-05T12:30:39.970Z,9.83
2019-05-05T12:31:39.893Z,9.74
2019-05-05T12:32:39.804Z,9.91
2019-05-05T12:33:39.721Z,10.02
2019-05-05T12:34:39.660Z,10.26
2019-05-05T12:35:39.568Z,10.13
2019-05-05T12:36:39.475Z,10.36
2019-05-05T12:37:39.402Z,10.63
2019-05-05T12:38:39.311Z,10.81
2019-05-05T12:39:39.269Z,10.93
2019-05-05T12:40:39.154Z,11.13
2019-05-05T12:41:39.065Z,10.93
2019-05-05T12:42:39.006Z,11.20
2019-05-05T12:43:38.910Z,11.39
2019-05-05T12:44:38.823Z,11.48
2019-05-05T12:45:38.772Z,11.59
2019-05-05T12:46:38.667Z,11.48
2019-05-05T12:47:38.578Z,11.93
2019-05-05T12:48:38.504Z,12.26
2019-05-05T12:49:38.425Z,12.44
2019-05-05T12:50:38.353Z,12.61
2019-05-05T12:51:38.267Z,13.09
2019-05-05T12:52:38.179Z,12.63
2019-05-05T12:53:38.102Z,12.85
2019-05-05T12:54:38.022Z,12.87
2019-05-05T12:55:41.426Z,12.73
2019-05-05T12:56:37.875Z,12.52
2019-05-05T12:57:37.780Z,12.23
2019-05-05T12:58:37.702Z,12.26
2019-05-05T12:59:37.628Z,12.25
2019-05-05T13:00:37.566Z,12.25
2019-05-05T13:01:37.458Z,12.48
2019-05-05T13:02:37.387Z,12.40
2019-05-05T13:03:37.307Z,12.44
2019-05-05T13:04:37.232Z,12.38
2019-05-05T13:05:37.160Z,12.31
2019-05-05T13:06:37.070Z,12.18
2019-05-05T13:07:36.985Z,12.29